Time;durP1;ratioP1;P1;durP2;ratioP2;P2;SDS_P1;SDS_P2;PMS_P1;PMS_P2;Temp;Humidity;BMP_temperature;BMP_pressure;BME280_temperature;BME280_humidity;BME280_pressure;Samples;Min_cycle;Max_cycle;Signal;HPM_P1;HPM_P2
2022/01/12 00:01:16;;;;;;;25.43;13.40;;;;;;;-3.45;73.17;101153.91;5073194;28;20239;-84
2022/01/12 00:03:55;;;;;;;22.43;12.97;;;;;;;-3.44;73.69;101176.53;5072673;28;20221;-81
2022/01/12 00:06:24;;;;;;;23.17;13.37;;;;;;;-3.33;73.33;101168.88;5089224;28;20216;-82
2022/01/12 00:08:51;;;;;;;25.43;14.17;;;;;;;-3.37;72.94;101173.47;5057586;28;20209;-91
2022/01/12 00:11:22;;;;;;;22.33;12.63;;;;;;;-3.38;72.94;101173.53;5072996;28;20311;-82
2022/01/12 00:13:53;;;;;;;21.77;12.07;;;;;;;-3.29;72.92;101172.97;5071624;28;20240;-87
2022/01/12 00:16:26;;;;;;;24.23;12.57;;;;;;;-3.26;72.89;101184.13;5088156;28;20220;-84
2022/01/12 00:18:53;;;;;;;23.10;12.00;;;;;;;-3.22;72.81;101174.31;5072693;28;20592;-91
2022/01/12 00:21:21;;;;;;;20.10;13.07;;;;;;;-3.17;72.03;101182.69;5090200;28;20212;-84
2022/01/12 00:23:50;;;;;;;21.90;12.27;;;;;;;-3.29;72.76;101192.16;5088072;28;20275;-84
2022/01/12 00:26:41;;;;;;;22.17;13.13;;;;;;;-3.32;72.57;101183.66;5051020;28;20599;-82
2022/01/12 00:34:51;;;;;;;21.73;12.13;;;;;;;-3.40;72.65;101191.97;5049211;28;20225;-84
2022/01/12 00:37:20;;;;;;;21.07;11.63;;;;;;;-3.40;72.84;101194.59;5046383;28;20261;-81
2022/01/12 00:39:47;;;;;;;20.60;12.80;;;;;;;-3.37;72.16;101191.81;5048413;28;20229;-86
2022/01/12 00:42:22;;;;;;;21.07;12.00;;;;;;;-3.35;72.44;101204.78;5045359;28;20644;-83
2022/01/12 00:44:49;;;;;;;22.03;12.57;;;;;;;-3.39;72.66;101182.34;5031344;28;20209;-80
2022/01/12 00:47:16;;;;;;;20.00;11.73;;;;;;;-3.41;72.64;101199.94;5045741;28;20753;-81
2022/01/12 00:49:45;;;;;;;23.37;12.60;;;;;;;-3.49;72.76;101200.38;5048030;28;20257;-81
2022/01/12 00:52:20;;;;;;;22.50;12.43;;;;;;;-3.64;73.26;101193.47;5049801;28;20287;-83
2022/01/12 00:54:49;;;;;;;21.10;12.67;;;;;;;-3.79;73.84;101181.28;5081969;28;20233;-86
2022/01/12 00:57:17;;;;;;;20.70;12.17;;;;;;;-3.59;73.71;101201.88;5047100;28;20515;-84
2022/01/12 00:59:44;;;;;;;21.00;12.40;;;;;;;-3.64;73.22;101189.03;5055718;28;20221;-87
2022/01/12 01:02:13;;;;;;;21.40;12.10;;;;;;;-3.64;72.94;101189.03;5061342;28;20202;-84
2022/01/12 01:04:40;;;;;;;20.80;12.57;;;;;;;-3.54;73.06;101207.69;5043490;28;20237;-84
2022/01/12 01:07:09;;;;;;;20.60;11.97;;;;;;;-3.75;73.01;101201.94;5029116;28;20253;-81
2022/01/12 01:09:43;;;;;;;20.67;11.40;;;;;;;-3.59;73.76;101207.09;5046807;28;20232;-90
2022/01/12 01:12:15;;;;;;;20.97;12.43;;;;;;;-3.51;73.36;101219.78;5042286;28;20649;-91
2022/01/12 01:15:00;;;;;;;21.97;12.10;;;;;;;-3.52;73.34;101226.78;5029510;28;20229;-85
2022/01/12 01:26:24;;;;;;;20.63;11.90;;;;;;;-3.60;73.93;101224.63;5048832;23;20205;-88
2022/01/12 01:29:25;;;;;;;23.60;11.80;;;;;;;-3.45;73.28;101222.03;5095864;22;20228;-88
2022/01/12 01:31:57;;;;;;;20.90;12.10;;;;;;;-3.50;72.78;101203.13;5109842;28;20223;-86
2022/01/12 01:34:27;;;;;;;22.63;12.00;;;;;;;-3.46;72.75;101210.72;5077522;28;20223;-82
2022/01/12 01:37:07;;;;;;;21.53;11.43;;;;;;;-3.51;72.97;101204.91;5095234;28;20227;-89
2022/01/12 01:39:40;;;;;;;20.03;11.03;;;;;;;-3.41;73.19;101207.81;5111210;28;20219;-87
2022/01/12 01:42:30;;;;;;;20.57;11.40;;;;;;;-3.43;72.84;101217.53;5110529;28;20228;-87
2022/01/12 01:53:39;;;;;;;20.30;11.40;;;;;;;-3.29;72.40;101221.00;5091627;28;20234;-86
2022/01/12 01:56:11;;;;;;;22.47;12.23;;;;;;;-3.48;72.40;101222.19;5092194;28;20231;-90
2022/01/12 01:58:41;;;;;;;20.07;11.53;;;;;;;-3.56;72.98;101230.53;5092303;28;20192;-82
2022/01/12 02:01:16;;;;;;;21.03;12.20;;;;;;;-3.59;73.51;101221.06;5094221;28;20227;-87
2022/01/12 02:04:06;;;;;;;21.70;12.17;;;;;;;-3.56;72.98;101230.53;5100478;22;20224;-87
2022/01/12 02:06:39;;;;;;;22.30;12.23;;;;;;;-3.55;73.17;101224.34;5098054;22;20647;-82
2022/01/12 02:09:09;;;;;;;20.50;11.90;;;;;;;-3.60;73.50;101222.00;5073299;28;20196;-81
2022/01/12 02:12:03;;;;;;;20.67;11.70;;;;;;;-3.58;73.61;101227.13;5090509;28;20648;-82
2022/01/12 02:14:35;;;;;;;20.60;11.97;;;;;;;-3.56;73.56;101225.28;5073786;28;20200;-89
2022/01/12 02:17:17;;;;;;;20.87;11.67;;;;;;;-3.56;73.35;101222.66;5085792;22;20248;-90
2022/01/12 02:20:27;;;;;;;18.90;11.50;;;;;;;-3.46;72.82;101215.94;5059299;28;20200;-85
2022/01/12 02:40:36;;;;;;;23.53;12.60;;;;;;;-3.74;73.89;101219.34;5094261;28;20228;-82
2022/01/12 02:53:38;;;;;;;21.57;12.27;;;;;;;-3.87;73.57;101213.13;5097753;28;20246;-84
2022/01/12 02:54:24;;;;;;;22.90;12.77;;;;;;;-4.04;74.25;101195.78;5087513;28;20192;-87
2022/01/12 02:57:00;;;;;;;22.37;12.77;;;;;;;-4.18;74.88;101194.91;5082172;23;20216;-90
2022/01/12 02:59:31;;;;;;;21.93;13.10;;;;;;;-4.26;74.82;101195.34;5074740;28;20244;-83
2022/01/12 03:08:10;;;;;;;21.63;12.43;;;;;;;-4.33;76.06;101198.38;5030337;28;20267;-83
2022/01/12 03:10:53;;;;;;;24.43;12.67;;;;;;;-4.15;75.47;101210.41;4999610;28;20305;-84
2022/01/12 03:16:41;;;;;;;24.10;13.63;;;;;;;-4.43;76.09;101205.09;5093855;28;20223;-82
2022/01/12 03:19:26;;;;;;;27.57;13.97;;;;;;;-4.48;76.51;101202.72;5112611;28;20203;-85
2022/01/12 03:22:01;;;;;;;23.03;13.00;;;;;;;-4.39;76.75;101206.59;5094995;28;20204;-87
2022/01/12 03:25:06;;;;;;;25.30;13.77;;;;;;;-4.46;76.37;101204.31;5096381;28;20215;-82
2022/01/12 03:27:45;;;;;;;21.63;13.07;;;;;;;-4.38;76.03;101197.78;5073546;28;20228;-88
2022/01/12 03:30:13;;;;;;;23.03;12.50;;;;;;;-4.35;76.06;101192.41;5091399;28;20329;-82
2022/01/12 03:32:50;;;;;;;28.13;14.17;;;;;;;-4.31;76.49;101205.22;5087724;28;20250;-81
2022/01/12 03:35:47;;;;;;;22.53;12.47;;;;;;;-4.39;76.15;101203.97;5074290;28;20228;-81
2022/01/12 03:38:24;;;;;;;22.40;13.00;;;;;;;-4.46;76.47;101200.84;5104934;28;20635;-81
2022/01/12 03:40:53;;;;;;;22.37;12.97;;;;;;;-4.59;77.18;101194.63;5058737;28;20232;-81
2022/01/12 03:43:28;;;;;;;22.83;12.80;;;;;;;-4.62;77.12;101193.00;5084893;28;20216;-80
2022/01/12 03:46:00;;;;;;;23.60;13.40;;;;;;;-4.80;77.34;101190.56;5104365;28;20223;-85
2022/01/12 03:48:30;;;;;;;22.30;13.33;;;;;;;-4.59;77.62;101208.53;5072136;28;20231;-83
2022/01/12 03:50:58;;;;;;;26.27;14.27;;;;;;;-4.69;76.69;101190.81;5071503;28;20228;-82
2022/01/12 03:53:26;;;;;;;25.13;13.77;;;;;;;-4.60;76.61;101199.00;5056975;28;20212;-82
2022/01/12 03:55:53;;;;;;;25.47;13.70;;;;;;;-4.71;77.17;101213.63;5091230;28;20207;-82
2022/01/12 03:58:21;;;;;;;23.43;14.17;;;;;;;-4.85;77.88;101211.72;5086567;28;20228;-81
2022/01/12 04:00:52;;;;;;;24.70;13.53;;;;;;;-4.78;77.31;101207.03;5105980;28;20219;-80
2022/01/12 04:03:25;;;;;;;24.13;13.70;;;;;;;-4.83;77.09;101214.28;5088963;28;20238;-80
2022/01/12 04:09:02;;;;;;;25.33;14.33;;;;;;;-4.77;77.78;101208.72;5100772;22;20319;-83
2022/01/12 04:11:39;;;;;;;21.90;12.90;;;;;;;-4.90;77.64;101195.47;5054588;28;20258;-82
2022/01/12 04:14:26;;;;;;;24.53;13.37;;;;;;;-4.87;78.03;101205.75;5067072;28;20216;-88
2022/01/12 04:16:53;;;;;;;26.07;14.53;;;;;;;-4.94;78.25;101209.63;5034548;28;20792;-83
2022/01/12 04:19:27;;;;;;;23.57;14.30;;;;;;;-4.98;78.69;101206.31;5050683;28;20599;-87
2022/01/12 04:22:06;;;;;;;27.93;13.93;;;;;;;-5.11;78.34;101202.69;5055527;28;20227;-84
2022/01/12 04:24:45;;;;;;;24.67;13.63;;;;;;;-5.07;78.24;101198.97;5068280;28;20259;-81
2022/01/12 04:27:14;;;;;;;27.13;14.93;;;;;;;-5.11;79.40;101215.75;5070328;28;20204;-81
2022/01/12 04:29:41;;;;;;;27.87;15.73;;;;;;;-5.09;79.13;101216.53;5084804;28;20228;-81
2022/01/12 04:32:11;;;;;;;27.73;15.33;;;;;;;-5.18;78.90;101217.03;5069529;28;20244;-82
2022/01/12 04:34:42;;;;;;;30.93;16.50;;;;;;;-5.15;78.63;101213.38;5068632;28;20232;-82
2022/01/12 04:37:09;;;;;;;30.70;16.00;;;;;;;-5.24;78.98;101201.66;5067839;28;20278;-82
2022/01/12 04:39:39;;;;;;;34.33;16.93;;;;;;;-5.34;78.90;101195.22;5065111;28;20584;-81
2022/01/12 04:42:08;;;;;;;28.33;15.20;;;;;;;-5.06;79.32;101215.50;5069435;28;20235;-81
2022/01/12 04:44:44;;;;;;;31.50;16.20;;;;;;;-5.07;78.42;101216.44;5074848;22;20226;-83
2022/01/12 04:47:46;;;;;;;24.07;14.07;;;;;;;-5.05;78.67;101218.06;5033335;28;20229;-81
2022/01/12 04:50:28;;;;;;;27.07;15.07;;;;;;;-5.06;79.13;101225.97;5038893;28;20202;-82
2022/01/12 04:53:11;;;;;;;28.90;15.20;;;;;;;-5.19;79.37;101222.31;5058645;23;20236;-81
2022/01/12 04:55:59;;;;;;;29.93;15.27;;;;;;;-5.00;77.83;101228.25;5086587;28;20239;-82
2022/01/12 04:58:30;;;;;;;27.03;14.87;;;;;;;-5.23;78.27;101220.81;5068325;28;20224;-81
2022/01/12 05:01:23;;;;;;;27.77;14.27;;;;;;;-5.16;78.58;101223.00;5085652;28;20233;-80
2022/01/12 05:06:58;;;;;;;30.17;14.43;;;;;;;-5.16;78.55;101236.06;5048681;28;20235;-85
2022/01/12 05:15:08;;;;;;;27.80;14.03;;;;;;;-5.02;78.67;101240.56;5086747;28;20247;-82
2022/01/12 05:17:38;;;;;;;26.87;14.63;;;;;;;-5.03;78.42;101244.94;5072841;28;20220;-81
2022/01/12 05:20:09;;;;;;;27.60;14.70;;;;;;;-5.21;79.00;101229.38;5084837;28;20236;-83
2022/01/12 05:22:36;;;;;;;28.00;14.80;;;;;;;-5.14;78.49;101243.84;5068758;28;20286;-80
2022/01/12 05:25:07;;;;;;;30.60;15.53;;;;;;;-5.16;78.75;101227.38;5071482;28;20247;-80
2022/01/12 05:27:48;;;;;;;28.10;15.13;;;;;;;-5.10;79.17;101247.97;5073491;28;20224;-80
2022/01/12 05:30:18;;;;;;;29.70;15.10;;;;;;;-5.02;78.68;101251.00;5068951;28;20301;-81
2022/01/12 05:32:49;;;;;;;28.30;14.90;;;;;;;-5.18;78.83;101255.38;5081919;23;20305;-82
2022/01/12 05:35:31;;;;;;;30.10;15.07;;;;;;;-5.35;79.17;101251.84;5032880;28;20272;-81
2022/01/12 05:38:02;;;;;;;28.87;14.77;;;;;;;-5.32;79.07;101253.47;5067672;28;20671;-81
2022/01/12 05:40:36;;;;;;;28.77;14.47;;;;;;;-5.18;79.02;101258.84;5052261;28;20218;-81
2022/01/12 05:43:09;;;;;;;27.40;14.53;;;;;;;-5.33;78.85;101251.78;5071823;28;20245;-81
2022/01/12 05:45:45;;;;;;;28.33;15.33;;;;;;;-5.40;79.00;101260.84;5069193;28;20585;-81
2022/01/12 05:50:51;;;;;;;29.60;15.87;;;;;;;-5.51;79.88;101257.97;5070913;28;20250;-80
2022/01/12 05:53:42;;;;;;;30.40;16.17;;;;;;;-5.48;80.19;101273.47;5071609;28;20213;-81
2022/01/12 05:56:11;;;;;;;29.77;15.27;;;;;;;-5.44;79.92;101275.00;5070438;28;20235;-81
2022/01/12 05:58:43;;;;;;;30.67;15.77;;;;;;;-5.35;79.68;101270.13;5071063;28;20240;-82
2022/01/12 06:01:28;;;;;;;28.17;14.60;;;;;;;-5.41;79.49;101269.59;5071025;28;20260;-81
2022/01/12 06:04:00;;;;;;;28.00;14.83;;;;;;;-5.47;80.05;101270.78;5073968;28;20280;-80
2022/01/12 06:06:52;;;;;;;28.10;13.87;;;;;;;-5.39;79.98;101281.69;5088440;23;20226;-83
2022/01/12 06:09:29;;;;;;;26.33;14.03;;;;;;;-5.30;79.70;101282.13;5114915;28;20223;-80
2022/01/12 06:12:13;;;;;;;29.00;14.97;;;;;;;-5.18;80.02;101291.97;5113163;23;20265;-82
2022/01/12 06:14:44;;;;;;;33.23;16.57;;;;;;;-5.32;79.61;101277.81;5088714;23;20228;-80
2022/01/12 06:17:38;;;;;;;29.90;15.27;;;;;;;-5.23;79.93;101291.34;5114052;28;20236;-81
2022/01/12 06:20:17;;;;;;;32.73;15.40;;;;;;;-5.21;79.39;101287.72;5115174;28;20224;-80
2022/01/12 06:23:17;;;;;;;28.90;15.63;;;;;;;-5.19;79.82;101285.03;5109686;22;20223;-80
2022/01/12 06:25:59;;;;;;;28.10;13.43;;;;;;;-5.11;79.50;101283.72;5103473;22;20228;-79
2022/01/12 06:28:38;;;;;;;32.40;16.33;;;;;;;-5.04;79.87;101297.31;5091279;23;20315;-80
2022/01/12 06:31:27;;;;;;;31.87;15.83;;;;;;;-5.05;79.05;101296.47;5099892;22;20228;-81
2022/01/12 06:33:57;;;;;;;30.33;16.27;;;;;;;-5.08;79.12;101295.75;5108655;23;20224;-80
2022/01/12 06:36:34;;;;;;;32.30;17.33;;;;;;;-5.02;79.55;101303.28;5095731;23;20224;-81
2022/01/12 06:39:09;;;;;;;28.37;15.57;;;;;;;-5.04;78.91;101295.50;5157329;23;20322;-81
2022/01/12 06:42:01;;;;;;;28.93;15.63;;;;;;;-5.05;79.76;101306.91;5115265;22;20224;-80
2022/01/12 06:44:31;;;;;;;21.73;10.87;;;;;;;-5.12;79.35;101308.16;5087196;23;20234;-81
2022/01/12 06:47:04;;;;;;;27.33;14.33;;;;;;;-5.00;79.82;101314.53;5074322;28;20243;-80
2022/01/12 06:49:44;;;;;;;28.37;12.97;;;;;;;-5.14;79.34;101317.00;5095186;22;20245;-80
2022/01/12 06:52:14;;;;;;;31.67;15.20;;;;;;;-5.10;79.66;101315.91;5079916;28;20231;-80
2022/01/12 06:54:42;;;;;;;28.13;14.43;;;;;;;-4.99;79.30;101321.41;5081962;23;20264;-80
2022/01/12 06:57:24;;;;;;;26.57;14.27;;;;;;;-4.94;79.57;101320.25;5098463;22;20224;-83
2022/01/12 07:00:07;;;;;;;31.57;16.30;;;;;;;-4.91;79.60;101330.56;5096093;22;20227;-80
2022/01/12 07:02:42;;;;;;;31.90;15.83;;;;;;;-4.86;79.09;101338.19;5114080;28;20974;-81
2022/01/12 07:05:18;;;;;;;29.63;15.93;;;;;;;-4.84;79.31;101317.16;5111053;28;20213;-80
2022/01/12 07:07:56;;;;;;;35.70;18.40;;;;;;;-4.62;79.04;101330.81;5095776;28;20307;-81
2022/01/12 07:10:36;;;;;;;30.00;15.30;;;;;;;-4.50;78.74;101336.22;5092028;28;20318;-82
2022/01/12 07:13:14;;;;;;;24.93;13.73;;;;;;;-4.50;77.75;101333.59;5205032;22;20232;-79
2022/01/12 07:16:00;;;;;;;29.80;14.70;;;;;;;-4.45;78.21;101354.28;5061391;28;20236;-81
2022/01/12 07:18:44;;;;;;;28.90;14.63;;;;;;;-4.41;77.70;101353.19;5041120;28;20215;-82
2022/01/12 07:21:33;;;;;;;29.07;14.33;;;;;;;-4.49;77.90;101339.69;5106331;23;20255;-80
2022/01/12 07:24:07;;;;;;;25.20;14.03;;;;;;;-4.50;77.47;101338.84;5217788;22;20260;-80
2022/01/12 07:30:45;;;;;;;25.60;13.10;;;;;;;-4.12;76.96;101364.69;5074747;23;20258;-80
2022/01/12 07:33:27;;;;;;;24.07;13.87;;;;;;;-4.06;76.97;101375.66;5092594;28;20283;-81
2022/01/12 07:36:02;;;;;;;29.47;14.67;;;;;;;-4.13;76.40;101370.84;5094529;28;20212;-82
2022/01/12 07:38:44;;;;;;;24.50;13.93;;;;;;;-4.08;76.24;101376.69;5092972;23;20274;-80
2022/01/12 07:41:37;;;;;;;30.03;15.40;;;;;;;-4.03;76.27;101361.56;5115181;22;20640;-81
2022/01/12 07:44:59;;;;;;;26.03;13.70;;;;;;;-3.86;75.67;101395.50;5111744;28;20192;-82
2022/01/12 07:47:40;;;;;;;22.80;13.37;;;;;;;-3.84;75.51;101396.28;5279521;22;20232;-80
2022/01/12 07:50:21;;;;;;;34.27;20.73;;;;;;;-3.62;74.94;101407.25;5090188;28;20589;-81
2022/01/12 07:53:02;;;;;;;29.47;16.67;;;;;;;-3.59;74.26;101406.22;5093309;28;20733;-81
2022/01/12 07:55:33;;;;;;;26.20;14.90;;;;;;;-3.42;74.30;101416.63;5101512;23;20231;-81
2022/01/12 07:58:27;;;;;;;24.33;14.10;;;;;;;-3.47;74.46;101429.13;5057487;28;20531;-83
2022/01/12 08:01:32;;;;;;;23.57;12.97;;;;;;;-3.43;74.47;101419.31;5193091;23;20204;-81
2022/01/12 08:04:12;;;;;;;25.93;14.60;;;;;;;-3.41;73.80;101428.78;5114133;22;20219;-81
2022/01/12 08:06:50;;;;;;;21.53;13.00;;;;;;;-3.38;73.47;101412.88;5074930;28;20238;-81
2022/01/12 08:09:21;;;;;;;25.47;14.10;;;;;;;-3.50;73.54;101410.97;5113509;28;20296;-81
2022/01/12 08:11:58;;;;;;;24.63;14.17;;;;;;;-3.45;73.25;101422.00;5197392;22;20257;-80
2022/01/12 08:15:37;;;;;;;25.50;14.63;;;;;;;-3.50;73.60;101413.59;5092382;22;20246;-82
2022/01/12 08:18:18;;;;;;;26.13;14.03;;;;;;;-3.36;73.16;101413.63;5086312;28;20778;-81
2022/01/12 08:23:43;;;;;;;24.27;14.33;;;;;;;-3.01;72.54;101424.72;5106182;22;20283;-79
2022/01/12 08:26:32;;;;;;;22.77;12.90;;;;;;;-2.96;71.80;101424.44;5079301;28;20259;-80
2022/01/12 08:29:02;;;;;;;25.30;14.63;;;;;;;-3.08;72.05;101420.78;5081326;28;20600;-80
2022/01/12 08:31:37;;;;;;;24.87;14.53;;;;;;;-3.12;72.34;101435.81;5086286;28;20226;-83
2022/01/12 08:34:13;;;;;;;25.83;14.47;;;;;;;-3.16;72.57;101436.06;5099471;28;20230;-81
2022/01/12 08:37:07;;;;;;;21.93;13.53;;;;;;;-2.98;72.43;101439.41;5102642;22;20216;-81
2022/01/12 08:39:38;;;;;;;24.30;13.43;;;;;;;-2.95;72.18;101428.75;5107032;28;20238;-81
2022/01/12 08:42:07;;;;;;;24.90;13.30;;;;;;;-2.91;71.71;101427.63;5108102;28;20212;-81
2022/01/12 08:45:02;;;;;;;24.53;13.83;;;;;;;-2.82;71.28;101434.97;5109994;28;20246;-81
2022/01/12 08:47:35;;;;;;;25.60;13.50;;;;;;;-2.88;71.10;101435.31;5109107;28;20642;-80
2022/01/12 08:50:10;;;;;;;18.53;10.17;;;;;;;-3.06;70.88;101437.25;5094867;22;20295;-80
2022/01/12 08:52:45;;;;;;;23.23;12.20;;;;;;;-3.06;71.07;101426.75;5068014;28;20917;-80
2022/01/12 08:55:21;;;;;;;20.90;12.10;;;;;;;-2.79;71.38;101433.00;5076883;28;20226;-82
2022/01/12 08:57:58;;;;;;;21.50;13.30;;;;;;;-2.78;71.32;101439.09;5091085;28;20227;-81
2022/01/12 09:00:30;;;;;;;24.03;13.23;;;;;;;-2.76;70.72;101442.47;5062601;28;20234;-82
2022/01/12 09:03:02;;;;;;;23.10;12.53;;;;;;;-2.60;70.51;101434.53;5071975;28;20180;-81
2022/01/12 09:05:32;;;;;;;21.57;12.23;;;;;;;-2.79;70.41;101424.28;5157784;23;20589;-81
2022/01/12 09:08:11;;;;;;;23.43;13.80;;;;;;;-2.52;70.42;101442.81;5083916;23;20224;-80
2022/01/12 09:11:18;;;;;;;25.83;12.87;;;;;;;-2.45;69.47;101441.47;5116175;22;20266;-80
2022/01/12 09:14:06;;;;;;;21.73;12.83;;;;;;;-2.43;69.15;101429.97;5108536;28;20230;-82
2022/01/12 09:16:54;;;;;;;21.20;12.17;;;;;;;-2.44;69.09;101430.91;5100950;22;20232;-80
2022/01/12 09:19:26;;;;;;;22.43;12.63;;;;;;;-2.25;69.01;101449.00;5104123;22;20234;-81
2022/01/12 09:22:00;;;;;;;19.30;12.13;;;;;;;-2.09;68.96;101441.84;5057684;23;20527;-80
2022/01/12 09:24:32;;;;;;;20.23;12.17;;;;;;;-2.38;68.77;101433.13;5066980;28;20236;-81
2022/01/12 09:27:08;;;;;;;24.27;13.63;;;;;;;-2.19;68.65;101442.53;5098471;22;20227;-81
2022/01/12 09:29:38;;;;;;;21.50;13.83;;;;;;;-2.30;69.06;101430.91;5074397;28;20216;-80
2022/01/12 09:32:08;;;;;;;20.87;12.77;;;;;;;-2.26;68.95;101429.78;5070826;28;20239;-80
2022/01/12 09:34:38;;;;;;;23.13;13.00;;;;;;;-2.14;68.07;101436.03;5107338;28;20237;-82
2022/01/12 09:37:07;;;;;;;21.87;13.10;;;;;;;-2.20;68.27;101439.06;5089643;28;20228;-80
2022/01/12 09:39:35;;;;;;;22.93;12.83;;;;;;;-2.30;68.46;101443.19;5093507;28;20224;-81
2022/01/12 09:42:06;;;;;;;23.37;13.27;;;;;;;-2.36;69.38;101436.53;5095879;23;20290;-81
2022/01/12 09:44:47;;;;;;;24.47;13.67;;;;;;;-2.24;69.10;101433.13;5054239;28;20304;-80
2022/01/12 09:47:30;;;;;;;19.60;12.13;;;;;;;-2.31;68.98;101444.13;5091855;23;20240;-81
2022/01/12 09:49:57;;;;;;;21.37;12.47;;;;;;;-2.13;68.96;101415.88;5075399;28;20224;-81
2022/01/12 09:52:27;;;;;;;23.70;13.53;;;;;;;-2.17;68.94;101425.72;5107720;28;20259;-80
2022/01/12 09:55:00;;;;;;;22.23;12.77;;;;;;;-2.08;68.40;101430.41;5088991;28;20529;-81
2022/01/12 09:57:28;;;;;;;22.23;12.20;;;;;;;-2.32;69.00;101424.88;5103198;28;20192;-81
2022/01/12 10:00:03;;;;;;;23.03;13.27;;;;;;;-2.38;69.67;101414.75;5080530;28;20578;-82
2022/01/12 10:02:42;;;;;;;23.60;13.63;;;;;;;-2.34;69.73;101416.28;5076968;28;20209;-80
2022/01/12 10:05:36;;;;;;;25.27;14.03;;;;;;;-2.45;69.73;101399.47;5041428;28;20217;-83
2022/01/12 10:08:12;;;;;;;23.00;12.47;;;;;;;-2.36;70.08;101409.41;5083761;28;20223;-81
2022/01/12 10:11:07;;;;;;;19.17;10.20;;;;;;;-2.14;69.72;101404.53;5066244;28;20232;-82
2022/01/12 10:13:43;;;;;;;23.80;13.37;;;;;;;-2.00;69.36;101406.28;5039583;28;20209;-80
2022/01/12 10:16:25;;;;;;;25.53;13.93;;;;;;;-2.19;69.80;101403.16;5088554;28;20208;-80
2022/01/12 10:19:01;;;;;;;24.00;14.07;;;;;;;-1.96;68.96;101395.50;5088972;28;20196;-81
2022/01/12 10:21:44;;;;;;;24.60;12.90;;;;;;;-2.02;68.59;101398.53;5088637;28;20204;-80
2022/01/12 10:24:18;;;;;;;25.47;13.87;;;;;;;-2.03;68.26;101375.81;5071926;28;20557;-80
2022/01/12 10:27:11;;;;;;;33.67;20.00;;;;;;;-1.64;67.84;101377.69;5074931;28;20217;-82
2022/01/12 10:30:05;;;;;;;41.93;22.43;;;;;;;-1.86;67.95;101377.38;5070069;28;20592;-82
2022/01/12 10:33:12;;;;;;;34.07;20.27;;;;;;;-1.81;68.46;101391.91;5088029;28;20213;-81
2022/01/12 10:36:02;;;;;;;26.50;16.80;;;;;;;-1.90;68.68;101370.63;5088709;28;20225;-80
2022/01/12 10:38:35;;;;;;;25.77;14.57;;;;;;;-1.93;68.86;101384.81;5056296;28;20272;-83
2022/01/12 10:41:11;;;;;;;24.80;14.63;;;;;;;-1.82;68.91;101381.50;5071311;28;20224;-83
2022/01/12 10:43:48;;;;;;;27.47;15.27;;;;;;;-1.87;69.02;101373.06;5080049;28;20254;-81
2022/01/12 10:46:50;;;;;;;25.57;15.80;;;;;;;-1.69;68.55;101386.81;5091480;28;20713;-80
2022/01/12 10:50:14;;;;;;;25.20;16.13;;;;;;;-1.94;68.91;101380.50;5096650;28;20232;-81
2022/01/12 10:53:13;;;;;;;26.70;17.37;;;;;;;-1.86;69.42;101385.25;5018422;28;20238;-80
2022/01/12 10:56:21;;;;;;;23.30;13.80;;;;;;;-1.94;69.00;101377.88;5015061;28;20204;-80
2022/01/12 10:59:06;;;;;;;24.10;14.90;;;;;;;-1.75;68.88;101376.69;5013395;28;20230;-81
2022/01/12 11:01:34;;;;;;;21.03;11.80;;;;;;;-1.85;68.46;101369.41;4995259;28;20208;-81
2022/01/12 11:04:01;;;;;;;22.17;13.07;;;;;;;-1.87;68.93;101362.56;4995999;28;20223;-82
2022/01/12 11:06:33;;;;;;;22.47;13.57;;;;;;;-1.72;68.65;101369.44;4974402;28;20242;-83
2022/01/12 11:09:07;;;;;;;24.90;14.00;;;;;;;-1.61;68.35;101359.09;4990528;28;20235;-81
2022/01/12 11:11:52;;;;;;;24.07;12.90;;;;;;;-1.52;67.83;101358.47;4990150;28;20216;-82
2022/01/12 11:14:34;;;;;;;22.43;14.50;;;;;;;-1.46;67.68;101355.47;5023192;28;20749;-81
2022/01/12 11:17:04;;;;;;;23.20;13.50;;;;;;;-1.63;68.11;101358.31;5066381;28;20248;-81
2022/01/12 11:19:37;;;;;;;22.07;13.30;;;;;;;-1.48;67.69;101345.97;5112329;28;20647;-81
2022/01/12 11:22:16;;;;;;;25.87;14.63;;;;;;;-1.48;67.80;101348.59;5094356;28;20231;-81
2022/01/12 11:24:47;;;;;;;23.50;13.30;;;;;;;-1.48;67.51;101344.19;5095746;28;20172;-81
2022/01/12 11:27:29;;;;;;;25.30;14.83;;;;;;;-1.36;68.14;101351.28;5099895;28;20247;-81
2022/01/12 11:30:03;;;;;;;26.10;13.43;;;;;;;-1.41;67.36;101332.34;5116641;28;20284;-82
2022/01/12 11:32:38;;;;;;;27.60;14.80;;;;;;;-1.25;67.80;101352.34;5114986;28;20176;-81
2022/01/12 11:35:42;;;;;;;25.33;14.13;;;;;;;-1.16;67.23;101357.81;5116537;28;20203;-82
2022/01/12 11:38:23;;;;;;;21.80;13.60;;;;;;;-1.22;67.14;101350.38;5097870;28;20223;-81
2022/01/12 11:41:21;;;;;;;22.93;13.17;;;;;;;-1.08;66.66;101347.66;5116093;28;20173;-82
2022/01/12 11:44:06;;;;;;;25.07;13.27;;;;;;;-0.92;66.61;101350.06;5094300;28;20264;-83
2022/01/12 11:46:59;;;;;;;23.57;14.40;;;;;;;-0.78;66.72;101347.34;5123278;28;20223;-80
2022/01/12 11:49:35;;;;;;;21.90;13.93;;;;;;;-0.72;66.53;101344.28;5134683;28;20211;-79
2022/01/12 11:52:36;;;;;;;23.87;13.93;;;;;;;-0.81;66.05;101344.06;5134764;28;20217;-81
2022/01/12 11:55:16;;;;;;;24.70;14.40;;;;;;;-0.57;65.90;101342.38;5136313;28;20200;-81
2022/01/12 11:57:59;;;;;;;26.27;15.87;;;;;;;-0.71;65.52;101351.25;5136495;28;20214;-81
2022/01/12 12:00:56;;;;;;;23.40;14.80;;;;;;;-0.65;65.60;101334.16;5133499;28;20203;-80
2022/01/12 12:03:36;;;;;;;19.93;13.47;;;;;;;-0.70;65.99;101354.72;5137174;28;20180;-81
2022/01/12 12:06:25;;;;;;;24.00;13.73;;;;;;;-0.62;65.57;101349.75;5136682;28;20231;-80
2022/01/12 12:09:03;;;;;;;22.57;12.90;;;;;;;-0.41;65.56;101350.03;5131327;28;20188;-81
2022/01/12 12:11:58;;;;;;;25.07;14.23;;;;;;;-0.53;65.57;101347.34;5136329;28;20250;-81
2022/01/12 12:14:25;;;;;;;23.27;14.07;;;;;;;-0.56;65.63;101330.91;5118103;28;20195;-81
2022/01/12 12:17:19;;;;;;;21.60;13.03;;;;;;;-0.64;65.13;101320.91;5135003;28;20223;-80
2022/01/12 12:20:33;;;;;;;22.57;13.37;;;;;;;-0.30;65.28;101321.16;5136070;28;20227;-80
2022/01/12 12:23:14;;;;;;;24.70;14.53;;;;;;;-0.23;64.06;101331.16;5133096;28;20217;-81
2022/01/12 12:26:15;;;;;;;24.20;15.87;;;;;;;-0.33;64.17;101316.97;5121860;28;20198;-80
2022/01/12 12:29:33;;;;;;;22.67;14.70;;;;;;;-0.03;64.06;101321.81;5120815;28;20183;-79
2022/01/12 12:32:01;;;;;;;22.17;14.07;;;;;;;-0.27;64.73;101323.56;5130562;28;20211;-80
2022/01/12 12:35:15;;;;;;;22.00;13.53;;;;;;;-0.26;64.31;101326.09;5124335;28;20207;-80
2022/01/12 12:38:21;;;;;;;21.17;12.70;;;;;;;-0.26;64.29;101331.38;5137415;28;20233;-79
2022/01/12 12:41:03;;;;;;;24.93;15.17;;;;;;;-0.19;64.13;101311.56;5123864;28;20223;-81
2022/01/12 12:43:49;;;;;;;21.30;13.67;;;;;;;-0.46;64.65;101316.13;5125407;28;20231;-79
2022/01/12 12:46:18;;;;;;;21.77;13.27;;;;;;;-0.36;65.00;101316.31;5131156;28;20238;-79
2022/01/12 12:49:10;;;;;;;22.17;14.40;;;;;;;-0.33;64.97;101313.50;5105970;28;20208;-79
2022/01/12 12:51:52;;;;;;;25.43;14.23;;;;;;;-0.34;64.04;101303.91;5143195;22;20229;-81
2022/01/12 12:54:33;;;;;;;24.80;14.53;;;;;;;0.07;64.02;101308.81;5075812;28;20201;-80
2022/01/12 12:57:35;;;;;;;25.33;14.63;;;;;;;0.11;63.79;101316.38;5036953;28;20177;-79
2022/01/12 13:00:47;;;;;;;20.57;12.43;;;;;;;-0.06;64.40;101320.25;5026448;28;20238;-79
2022/01/12 13:04:01;;;;;;;23.53;13.90;;;;;;;-0.09;64.14;101325.72;5054817;23;20202;-79
2022/01/12 13:06:44;;;;;;;24.27;13.10;;;;;;;-0.11;64.40;101309.22;5097823;23;20236;-79
2022/01/12 13:09:25;;;;;;;22.07;13.60;;;;;;;-0.29;65.45;101313.16;5084005;28;20617;-94
2022/01/12 13:11:52;;;;;;;21.67;13.40;;;;;;;-0.19;64.86;101321.25;5045498;28;20232;-91
2022/01/12 13:14:21;;;;;;;22.13;13.90;;;;;;;-0.27;65.37;101294.59;5046246;28;20236;-92
2022/01/12 13:16:50;;;;;;;23.40;13.43;;;;;;;-0.35;65.59;101310.97;5029645;28;20255;-88
2022/01/12 13:21:07;;;;;;;23.60;13.87;;;;;;;-0.11;65.50;101300.47;5080160;28;20232;-91
2022/01/12 13:22:26;;;;;;;20.77;13.70;;;;;;;-0.11;65.04;101306.56;5047033;28;20241;-87
2022/01/12 13:24:54;;;;;;;24.80;14.00;;;;;;;-0.03;64.97;101314.75;5081267;28;20225;-87